Bedford, Massachusetts
Current Conditions -  °F | °C
As of 1:56 PM on Friday 21 Nov 2014 (Local Time) from KBED Reporting Station
Scattered Clouds Scattered Clouds  
Wind Chill: -7°   Ceiling: Unl
Heat Index:   Visibility: 10mi
Dew Point: -13°   Wind: 22mph
Humidity: 37%   Direction: 300°WNW
Pressure: 30.15"   Gusts: 28mph
Location:  42.49°N, 71.28°W
Report Text: KBED 211856Z 30019G24KT 10SM SCT055 00/M13 A3015 RMK AO2 PK WND 29026/1807 SLP228 T00001133
Loading
Personal Weather Stations






























Interactive Weather Map New forecast layout! Learn more

10-Day Weather Forecast

Advertisements
Track Severe Weather on mobile